Dai15hakuryomaru — JD2439 — position and weather

sailwx.info

Track history (hours):
 
Tides and Currents Weather Stations Pressure Air Temp Water Temp Dewpoint Dewpoint Depression Visibility Wind Speed Wind Dir Waves Ship Positions

Dai15hakuryomaru

Last reported at 2014-Sep-19 11:32 UTC. Time now 2014-Sep-22 18:14 UTC.
Position N 35°16' E 139°46'.

Length 80 m; draft 5.4 m.

Type: Tanker. MMSI: 431000243.

Date/timePositionNaut miles runAvg speedWind from/ knotsBaromVisibWave heightAir tempDewpointWater temp
2014-Sep-19 11:32N 35°16' E 139°46'1111.2
2014-Sep-19 10:34N 35°27' E 139°46'12 2.3
2014-Sep-19 05:34N 35°32' E 139°59'0 0.0
2014-Sep-19 04:34N 35°32' E 139°59'0 0.0
2014-Sep-19 03:33N 35°32' E 139°59'0 0.0
2014-Sep-19 02:33N 35°32' E 139°59'0 0.0
2014-Sep-19 01:33N 35°32' E 139°59'0 0.0
2014-Sep-19 00:33N 35°32' E 139°59'0 0.0
2014-Sep-18 23:33N 35°32' E 139°59'0 0.0
2014-Sep-18 22:33N 35°32' E 139°59'0 0.0
2014-Sep-18 21:34N 35°32' E 139°59'0 0.0
2014-Sep-18 20:33N 35°32' E 139°59'0 0.0
2014-Sep-18 19:33N 35°32' E 139°59'0 0.0
2014-Sep-18 18:33N 35°32' E 139°59'0 0.0
2014-Sep-18 17:34N 35°32' E 139°59'0 0.0
2014-Sep-18 16:33N 35°32' E 139°59'0 0.0
2014-Sep-18 15:34N 35°32' E 139°59'9 8.5
2014-Sep-18 14:33N 35°27' E 139°50'1111.1
2014-Sep-18 13:33N 35°17' E 139°46'1111.4
2014-Sep-18 12:33N 35°06' E 139°42'  
2014-Sep-15 05:21N 35°12' E 139°46'1011.9
2014-Sep-15 04:32N 35°21' E 139°42'5 4.9
2014-Sep-15 03:33N 35°24' E 139°38'0 0.0
2014-Sep-15 02:33N 35°24' E 139°38'0 0.0
2014-Sep-15 01:33N 35°24' E 139°38'0 0.0
2014-Sep-15 00:33N 35°24' E 139°38'0 0.0
2014-Sep-14 23:33N 35°24' E 139°38'2 1.9
2014-Sep-14 22:33N 35°23' E 139°40'9 8.9
2014-Sep-14 21:33N 35°30' E 139°47'1 0.7
2014-Sep-14 20:33N 35°30' E 139°46'0 0.0
2014-Sep-14 19:33N 35°30' E 139°46'0 0.0
2014-Sep-14 18:33N 35°30' E 139°46'0 0.0
2014-Sep-14 17:33N 35°30' E 139°46'0 0.0
2014-Sep-14 16:33N 35°30' E 139°46'0 0.0
2014-Sep-14 15:33N 35°30' E 139°46'0 0.0
2014-Sep-14 14:33N 35°30' E 139°46'0 0.0
2014-Sep-14 13:33N 35°30' E 139°46'0 0.0
2014-Sep-14 12:33N 35°30' E 139°46'0 0.0
2014-Sep-14 11:33N 35°30' E 139°46'0 0.0
2014-Sep-14 10:33N 35°30' E 139°46'0 0.0
2014-Sep-14 09:33N 35°30' E 139°46'0 0.0
2014-Sep-14 08:33N 35°30' E 139°46'0 0.0
2014-Sep-14 07:33N 35°30' E 139°46'0 0.0
2014-Sep-14 06:33N 35°30' E 139°46'0 0.0
2014-Sep-14 05:33N 35°30' E 139°46'0 0.0
2014-Sep-14 04:33N 35°30' E 139°46'0 0.0
2014-Sep-14 03:33N 35°30' E 139°46'0 0.0
2014-Sep-14 02:33N 35°30' E 139°46'0 0.0
2014-Sep-14 01:33N 35°30' E 139°46'3 0.8
2014-Sep-13 21:33N 35°29' E 139°49'0 0.0
2014-Sep-13 20:33N 35°29' E 139°49'0 0.0
2014-Sep-13 19:33N 35°29' E 139°49'0 0.0
2014-Sep-13 18:33N 35°29' E 139°49'0 0.0
2014-Sep-13 17:33N 35°29' E 139°49'0 0.0
2014-Sep-13 16:33N 35°29' E 139°49'0 0.0
2014-Sep-13 15:33N 35°29' E 139°49'0 0.0
2014-Sep-13 14:33N 35°29' E 139°49'0 0.0
2014-Sep-13 13:33N 35°29' E 139°49'1010.2
2014-Sep-13 12:33N 35°19' E 139°44'1212.1
2014-Sep-13 11:33N 35°07' E 139°43'6 0.2
2014-Sep-12 05:12N 35°12' E 139°46'811.6
2014-Sep-12 04:33N 35°19' E 139°43'1111.1
2014-Sep-12 03:33N 35°29' E 139°50'10 9.7
2014-Sep-12 02:33N 35°30' E 140°02'0 0.0
2014-Sep-12 01:34N 35°30' E 140°02'0 0.0
2014-Sep-12 00:33N 35°30' E 140°02'0 0.0
2014-Sep-11 23:33N 35°30' E 140°02'2 1.5
2014-Sep-11 22:33N 35°31' E 140°00'1010.0
2014-Sep-11 21:34N 35°41' E 139°59'0 0.1
2014-Sep-11 20:34N 35°41' E 139°59'0 0.0
2014-Sep-11 19:33N 35°41' E 139°59'0 0.0
2014-Sep-11 18:33N 35°41' E 139°59'0 0.0
2014-Sep-11 17:33N 35°41' E 139°59'0 0.0
2014-Sep-11 16:33N 35°41' E 139°59'0 0.0
2014-Sep-11 15:33N 35°41' E 139°59'0 0.0
2014-Sep-11 14:33N 35°41' E 139°59'0 0.0
2014-Sep-11 13:33N 35°41' E 139°59'0 0.0
2014-Sep-11 12:33N 35°41' E 139°59'0 0.0
2014-Sep-11 11:34N 35°41' E 139°59'0 0.0
2014-Sep-11 10:33N 35°41' E 139°59'0 0.0
2014-Sep-11 09:34N 35°41' E 139°59'0 0.0
2014-Sep-11 08:33N 35°41' E 139°59'0 0.0
2014-Sep-11 07:33N 35°41' E 139°59'0 0.0
2014-Sep-11 06:33N 35°41' E 139°59'0 0.0
2014-Sep-11 05:33N 35°41' E 139°59'0 0.0
2014-Sep-11 04:33N 35°41' E 139°59'0 0.0
2014-Sep-11 03:33N 35°41' E 139°59'0 0.0
2014-Sep-11 02:33N 35°41' E 139°59'0 0.0
2014-Sep-11 01:34N 35°41' E 139°59'0 0.0
2014-Sep-11 00:34N 35°41' E 139°59'0 0.0
2014-Sep-10 23:33N 35°41' E 139°59'4 3.8
2014-Sep-10 22:33N 35°37' E 139°58'0 0.4
2014-Sep-10 21:34N 35°36' E 139°58'0 0.0
2014-Sep-10 20:33N 35°36' E 139°58'0 0.0
2014-Sep-10 19:33N 35°36' E 139°58'0 0.0
2014-Sep-10 18:33N 35°36' E 139°58'0 0.0
2014-Sep-10 17:33N 35°36' E 139°58'0 0.0
2014-Sep-10 16:34N 35°36' E 139°58'0 0.0
2014-Sep-10 15:33N 35°36' E 139°58'0 0.0
2014-Sep-10 14:33N 35°36' E 139°58'0 0.0
2014-Sep-10 13:34N 35°36' E 139°58'7 6.9
2014-Sep-10 12:34N 35°31' E 139°53'1312.8
2014-Sep-10 11:33N 35°20' E 139°44'1212.3
2014-Sep-10 10:34N 35°08' E 139°46'18 7.1
2014-Sep-10 08:05N 34°58' E 140°04'710.3
2014-Sep-10 07:22N 35°02' E 140°11'3411.6
2014-Sep-10 04:29N 35°27' E 140°38'1413.3
2014-Sep-10 03:26N 35°37' E 140°50'20 9.8
2014-Sep-10 01:23N 35°57' E 140°42'3 4.1
2014-Sep-10 00:33N 35°53' E 140°41'0 0.0
2014-Sep-09 23:33N 35°53' E 140°41'0 0.0
2014-Sep-09 22:33N 35°53' E 140°41'0 0.0
2014-Sep-09 21:33N 35°53' E 140°41'0 0.0
2014-Sep-09 20:33N 35°53' E 140°41'0 0.0
2014-Sep-09 19:33N 35°53' E 140°41'0 0.0
2014-Sep-09 18:33N 35°53' E 140°41'0 0.0
2014-Sep-09 17:33N 35°53' E 140°41'0 0.0
2014-Sep-09 16:33N 35°53' E 140°41'0 0.0
2014-Sep-09 15:33N 35°53' E 140°41'0 0.0
2014-Sep-09 14:33N 35°53' E 140°41'0 0.0
2014-Sep-09 13:33N 35°53' E 140°41'0 0.0
2014-Sep-09 12:33N 35°53' E 140°41'0 0.0
2014-Sep-09 11:33N 35°53' E 140°41'  
Track history (hours):
 
Tides and Currents Weather Stations Pressure Air Temp Water Temp Dewpoint Dewpoint Depression Visibility Wind Speed Wind Dir Waves Ship Positions

Dai15hakuryomaru

Last reported at 2014-Sep-19 11:32 UTC. Time now 2014-Sep-22 18:14 UTC.
Position N 35°16' E 139°46'.

Length 80 m; draft 5.4 m.

Type: Tanker. MMSI: 431000243.

Date/timePositionNaut miles runAvg speedWind from/ knotsBaromVisibWave heightAir tempDewpointWater temp
2014-Sep-19 11:32N 35°16' E 139°46'1111.2
2014-Sep-19 10:34N 35°27' E 139°46'12 2.3
2014-Sep-19 05:34N 35°32' E 139°59'0 0.0
2014-Sep-19 04:34N 35°32' E 139°59'0 0.0
2014-Sep-19 03:33N 35°32' E 139°59'0 0.0
2014-Sep-19 02:33N 35°32' E 139°59'0 0.0
2014-Sep-19 01:33N 35°32' E 139°59'0 0.0
2014-Sep-19 00:33N 35°32' E 139°59'0 0.0
2014-Sep-18 23:33N 35°32' E 139°59'0 0.0
2014-Sep-18 22:33N 35°32' E 139°59'0 0.0
2014-Sep-18 21:34N 35°32' E 139°59'0 0.0
2014-Sep-18 20:33N 35°32' E 139°59'0 0.0
2014-Sep-18 19:33N 35°32' E 139°59'0 0.0
2014-Sep-18 18:33N 35°32' E 139°59'0 0.0
2014-Sep-18 17:34N 35°32' E 139°59'0 0.0
2014-Sep-18 16:33N 35°32' E 139°59'0 0.0
2014-Sep-18 15:34N 35°32' E 139°59'9 8.5
2014-Sep-18 14:33N 35°27' E 139°50'1111.1
2014-Sep-18 13:33N 35°17' E 139°46'1111.4
2014-Sep-18 12:33N 35°06' E 139°42'  
2014-Sep-15 05:21N 35°12' E 139°46'1011.9
2014-Sep-15 04:32N 35°21' E 139°42'5 4.9
2014-Sep-15 03:33N 35°24' E 139°38'0 0.0
2014-Sep-15 02:33N 35°24' E 139°38'0 0.0
2014-Sep-15 01:33N 35°24' E 139°38'0 0.0
2014-Sep-15 00:33N 35°24' E 139°38'0 0.0
2014-Sep-14 23:33N 35°24' E 139°38'2 1.9
2014-Sep-14 22:33N 35°23' E 139°40'9 8.9
2014-Sep-14 21:33N 35°30' E 139°47'1 0.7
2014-Sep-14 20:33N 35°30' E 139°46'0 0.0
2014-Sep-14 19:33N 35°30' E 139°46'0 0.0
2014-Sep-14 18:33N 35°30' E 139°46'0 0.0
2014-Sep-14 17:33N 35°30' E 139°46'0 0.0
2014-Sep-14 16:33N 35°30' E 139°46'0 0.0
2014-Sep-14 15:33N 35°30' E 139°46'0 0.0
2014-Sep-14 14:33N 35°30' E 139°46'0 0.0
2014-Sep-14 13:33N 35°30' E 139°46'0 0.0
2014-Sep-14 12:33N 35°30' E 139°46'0 0.0
2014-Sep-14 11:33N 35°30' E 139°46'0 0.0
2014-Sep-14 10:33N 35°30' E 139°46'0 0.0
2014-Sep-14 09:33N 35°30' E 139°46'0 0.0
2014-Sep-14 08:33N 35°30' E 139°46'0 0.0
2014-Sep-14 07:33N 35°30' E 139°46'0 0.0
2014-Sep-14 06:33N 35°30' E 139°46'0 0.0
2014-Sep-14 05:33N 35°30' E 139°46'0 0.0
2014-Sep-14 04:33N 35°30' E 139°46'0 0.0
2014-Sep-14 03:33N 35°30' E 139°46'0 0.0
2014-Sep-14 02:33N 35°30' E 139°46'0 0.0
2014-Sep-14 01:33N 35°30' E 139°46'3 0.8
2014-Sep-13 21:33N 35°29' E 139°49'0 0.0
2014-Sep-13 20:33N 35°29' E 139°49'0 0.0
2014-Sep-13 19:33N 35°29' E 139°49'0 0.0
2014-Sep-13 18:33N 35°29' E 139°49'0 0.0
2014-Sep-13 17:33N 35°29' E 139°49'0 0.0
2014-Sep-13 16:33N 35°29' E 139°49'0 0.0
2014-Sep-13 15:33N 35°29' E 139°49'0 0.0
2014-Sep-13 14:33N 35°29' E 139°49'0 0.0
2014-Sep-13 13:33N 35°29' E 139°49'1010.2
2014-Sep-13 12:33N 35°19' E 139°44'1212.1
2014-Sep-13 11:33N 35°07' E 139°43'6 0.2
2014-Sep-12 05:12N 35°12' E 139°46'811.6
2014-Sep-12 04:33N 35°19' E 139°43'1111.1
2014-Sep-12 03:33N 35°29' E 139°50'10 9.7
2014-Sep-12 02:33N 35°30' E 140°02'0 0.0
2014-Sep-12 01:34N 35°30' E 140°02'0 0.0
2014-Sep-12 00:33N 35°30' E 140°02'0 0.0
2014-Sep-11 23:33N 35°30' E 140°02'2 1.5
2014-Sep-11 22:33N 35°31' E 140°00'1010.0
2014-Sep-11 21:34N 35°41' E 139°59'0 0.1
2014-Sep-11 20:34N 35°41' E 139°59'0 0.0
2014-Sep-11 19:33N 35°41' E 139°59'0 0.0
2014-Sep-11 18:33N 35°41' E 139°59'0 0.0
2014-Sep-11 17:33N 35°41' E 139°59'0 0.0
2014-Sep-11 16:33N 35°41' E 139°59'0 0.0
2014-Sep-11 15:33N 35°41' E 139°59'0 0.0
2014-Sep-11 14:33N 35°41' E 139°59'0 0.0
2014-Sep-11 13:33N 35°41' E 139°59'0 0.0
2014-Sep-11 12:33N 35°41' E 139°59'0 0.0
2014-Sep-11 11:34N 35°41' E 139°59'0 0.0
2014-Sep-11 10:33N 35°41' E 139°59'0 0.0
2014-Sep-11 09:34N 35°41' E 139°59'0 0.0
2014-Sep-11 08:33N 35°41' E 139°59'0 0.0
2014-Sep-11 07:33N 35°41' E 139°59'0 0.0
2014-Sep-11 06:33N 35°41' E 139°59'0 0.0
2014-Sep-11 05:33N 35°41' E 139°59'0 0.0
2014-Sep-11 04:33N 35°41' E 139°59'0 0.0
2014-Sep-11 03:33N 35°41' E 139°59'0 0.0
2014-Sep-11 02:33N 35°41' E 139°59'0 0.0
2014-Sep-11 01:34N 35°41' E 139°59'0 0.0
2014-Sep-11 00:34N 35°41' E 139°59'0 0.0
2014-Sep-10 23:33N 35°41' E 139°59'4 3.8
2014-Sep-10 22:33N 35°37' E 139°58'0 0.4
2014-Sep-10 21:34N 35°36' E 139°58'0 0.0
2014-Sep-10 20:33N 35°36' E 139°58'0 0.0
2014-Sep-10 19:33N 35°36' E 139°58'0 0.0
2014-Sep-10 18:33N 35°36' E 139°58'0 0.0
2014-Sep-10 17:33N 35°36' E 139°58'0 0.0
2014-Sep-10 16:34N 35°36' E 139°58'0 0.0
2014-Sep-10 15:33N 35°36' E 139°58'0 0.0
2014-Sep-10 14:33N 35°36' E 139°58'0 0.0
2014-Sep-10 13:34N 35°36' E 139°58'7 6.9
2014-Sep-10 12:34N 35°31' E 139°53'1312.8
2014-Sep-10 11:33N 35°20' E 139°44'1212.3
2014-Sep-10 10:34N 35°08' E 139°46'18 7.1
2014-Sep-10 08:05N 34°58' E 140°04'710.3
2014-Sep-10 07:22N 35°02' E 140°11'3411.6
2014-Sep-10 04:29N 35°27' E 140°38'1413.3
2014-Sep-10 03:26N 35°37' E 140°50'20 9.8
2014-Sep-10 01:23N 35°57' E 140°42'3 4.1
2014-Sep-10 00:33N 35°53' E 140°41'0 0.0
2014-Sep-09 23:33N 35°53' E 140°41'0 0.0
2014-Sep-09 22:33N 35°53' E 140°41'0 0.0
2014-Sep-09 21:33N 35°53' E 140°41'0 0.0
2014-Sep-09 20:33N 35°53' E 140°41'0 0.0
2014-Sep-09 19:33N 35°53' E 140°41'0 0.0
2014-Sep-09 18:33N 35°53' E 140°41'0 0.0
2014-Sep-09 17:33N 35°53' E 140°41'0 0.0
2014-Sep-09 16:33N 35°53' E 140°41'0 0.0
2014-Sep-09 15:33N 35°53' E 140°41'0 0.0
2014-Sep-09 14:33N 35°53' E 140°41'0 0.0
2014-Sep-09 13:33N 35°53' E 140°41'0 0.0
2014-Sep-09 12:33N 35°53' E 140°41'0 0.0
2014-Sep-09 11:33N 35°53' E 140°41'  

Dump ship's entire track history